Aviation Digital Data Service (ADDS)

Output produced by METARs form (2349 UTC 20 January 2019)
found at http://www.aviationweather.gov/metar/data/
 
METAR text: LXGB 202250Z AUTO 27010KT 9999 // NCD 13/09 Q1019
Conditions at: LXGB (GIBRALTAR (CIV/M, GI) observed 2250 UTC 20 January 2019
Temperature: 13.0°C (55°F)
Dewpoint: 9.0°C (48°F) [RH = 77%]
Pressure (altimeter): 30.09 inches Hg (1019.0 mb)
Winds: from the W (270 degrees) at 12 MPH (10 knots; 5.1 m/s)
Visibility: 6 or more miles (10+ km)
Ceiling: at least 12,000 feet AGL
Clouds: sky clear below 12,000 feet AGL
Weather: no significant weather observed at this time

METAR text: LXGB 202150Z AUTO 27013KT 9999 // NCD 13/08 Q1019
Conditions at: LXGB (GIBRALTAR (CIV/M, GI) observed 2150 UTC 20 January 2019
Temperature: 13.0°C (55°F)
Dewpoint: 8.0°C (46°F) [RH = 72%]
Pressure (altimeter): 30.09 inches Hg (1019.0 mb)
Winds: from the W (270 degrees) at 15 MPH (13 knots; 6.7 m/s)
Visibility: 6 or more miles (10+ km)
Ceiling: at least 12,000 feet AGL
Clouds: sky clear below 12,000 feet AGL
Weather: no significant weather observed at this time

METAR text: LXGB 202050Z AUTO 26012KT 9999 // NCD 13/08 Q1018
Conditions at: LXGB (GIBRALTAR (CIV/M, GI) observed 2050 UTC 20 January 2019
Temperature: 13.0°C (55°F)
Dewpoint: 8.0°C (46°F) [RH = 72%]
Pressure (altimeter): 30.06 inches Hg (1018.0 mb)
Winds: from the W (260 degrees) at 14 MPH (12 knots; 6.2 m/s)
Visibility: 6 or more miles (10+ km)
Ceiling: at least 12,000 feet AGL
Clouds: sky clear below 12,000 feet AGL
Weather: no significant weather observed at this time

METAR text: LXGB 201950Z AUTO 25010KT 9999 // SCT060/// 14/08 Q1018
Conditions at: LXGB (GIBRALTAR (CIV/M, GI) observed 1950 UTC 20 January 2019
Temperature: 14.0°C (57°F)
Dewpoint: 8.0°C (46°F) [RH = 67%]
Pressure (altimeter): 30.06 inches Hg (1018.0 mb)
Winds: from the WSW (250 degrees) at 12 MPH (10 knots; 5.1 m/s)
Visibility: 6 or more miles (10+ km)
Ceiling: at least 12,000 feet AGL
Clouds: scattered clouds at 6000 feet AGL
Weather: no significant weather observed at this time

METAR text: LXGB 201850Z 24009KT 9999 FEW035 14/08 Q1017 NOSIG
Conditions at: LXGB (GIBRALTAR (CIV/M, GI) observed 1850 UTC 20 January 2019
Temperature: 14.0°C (57°F)
Dewpoint: 8.0°C (46°F) [RH = 67%]
Pressure (altimeter): 30.03 inches Hg (1017.0 mb)
Winds: from the WSW (240 degrees) at 10 MPH (9 knots; 4.6 m/s)
Visibility: 6 or more miles (10+ km)
Ceiling: at least 12,000 feet AGL
Clouds: few clouds at 3500 feet AGL
Weather: no significant weather observed at this time

METAR text: LXGB 201750Z 25008KT 9999 FEW023 SCT038 14/08 Q1017 BLU NOSIG
Conditions at: LXGB (GIBRALTAR (CIV/M, GI) observed 1750 UTC 20 January 2019
Temperature: 14.0°C (57°F)
Dewpoint: 8.0°C (46°F) [RH = 67%]
Pressure (altimeter): 30.03 inches Hg (1017.0 mb)
Winds: from the WSW (250 degrees) at 9 MPH (8 knots; 4.1 m/s)
Visibility: 6 or more miles (10+ km)
Ceiling: at least 12,000 feet AGL
Clouds: few clouds at 2300 feet AGL
scattered clouds at 3800 feet AGL
Weather: no significant weather observed at this time

METAR text: LXGB 201650Z 27010KT 9999 FEW025 BKN050 15/08 Q1016 NOSIG
Conditions at: LXGB (GIBRALTAR (CIV/M, GI) observed 1650 UTC 20 January 2019
Temperature: 15.0°C (59°F)
Dewpoint: 8.0°C (46°F) [RH = 63%]
Pressure (altimeter): 30.00 inches Hg (1016.0 mb)
Winds: from the W (270 degrees) at 12 MPH (10 knots; 5.1 m/s)
Visibility: 6 or more miles (10+ km)
Ceiling: 5000 feet AGL
Clouds: few clouds at 2500 feet AGL
broken clouds at 5000 feet AGL
Weather: no significant weather observed at this time

METAR text: LXGB 201550Z 27011KT 9999 FEW023 BKN036 15/08 Q1016 NOSIG
Conditions at: LXGB (GIBRALTAR (CIV/M, GI) observed 1550 UTC 20 January 2019
Temperature: 15.0°C (59°F)
Dewpoint: 8.0°C (46°F) [RH = 63%]
Pressure (altimeter): 30.00 inches Hg (1016.0 mb)
Winds: from the W (270 degrees) at 13 MPH (11 knots; 5.7 m/s)
Visibility: 6 or more miles (10+ km)
Ceiling: 3600 feet AGL
Clouds: few clouds at 2300 feet AGL
broken clouds at 3600 feet AGL
Weather: no significant weather observed at this time

METAR text: LXGB 201450Z 26014KT 9999 FEW022 BKN042 15/09 Q1015 NOSIG
Conditions at: LXGB (GIBRALTAR (CIV/M, GI) observed 1450 UTC 20 January 2019
Temperature: 15.0°C (59°F)
Dewpoint: 9.0°C (48°F) [RH = 67%]
Pressure (altimeter): 29.97 inches Hg (1015.0 mb)
Winds: from the W (260 degrees) at 16 MPH (14 knots; 7.2 m/s)
Visibility: 6 or more miles (10+ km)
Ceiling: 4200 feet AGL
Clouds: few clouds at 2200 feet AGL
broken clouds at 4200 feet AGL
Weather: no significant weather observed at this time

METAR text: LXGB 201350Z 27014KT 9999 FEW020 BKN035 14/09 Q1015 NOSIG
Conditions at: LXGB (GIBRALTAR (CIV/M, GI) observed 1350 UTC 20 January 2019
Temperature: 14.0°C (57°F)
Dewpoint: 9.0°C (48°F) [RH = 72%]
Pressure (altimeter): 29.97 inches Hg (1015.0 mb)
Winds: from the W (270 degrees) at 16 MPH (14 knots; 7.2 m/s)
Visibility: 6 or more miles (10+ km)
Ceiling: 3500 feet AGL
Clouds: few clouds at 2000 feet AGL
broken clouds at 3500 feet AGL
Weather: no significant weather observed at this time

METAR text: LXGB 201250Z 26016KT 9999 FEW020 BKN030 14/08 Q1015 BLU NOSIG
Conditions at: LXGB (GIBRALTAR (CIV/M, GI) observed 1250 UTC 20 January 2019
Temperature: 14.0°C (57°F)
Dewpoint: 8.0°C (46°F) [RH = 67%]
Pressure (altimeter): 29.97 inches Hg (1015.0 mb)
Winds: from the W (260 degrees) at 18 MPH (16 knots; 8.2 m/s)
Visibility: 6 or more miles (10+ km)
Ceiling: 3000 feet AGL
Clouds: few clouds at 2000 feet AGL
broken clouds at 3000 feet AGL
Weather: no significant weather observed at this time

METAR text: LXGB 201150Z 27015G25KT 9999 FEW019 BKN028 14/09 Q1015 NOSIG
Conditions at: LXGB (GIBRALTAR (CIV/M, GI) observed 1150 UTC 20 January 2019
Temperature: 14.0°C (57°F)
Dewpoint: 9.0°C (48°F) [RH = 72%]
Pressure (altimeter): 29.97 inches Hg (1015.0 mb)
Winds: from the W (270 degrees) at 17 MPH (15 knots; 7.7 m/s)
gusting to 29 MPH (25 knots; 12.9 m/s)
Visibility: 6 or more miles (10+ km)
Ceiling: 2800 feet AGL
Clouds: few clouds at 1900 feet AGL
broken clouds at 2800 feet AGL
Weather: no significant weather observed at this time

METAR text: LXGB 201050Z 27016G26KT 9999 FEW018 BKN025 14/09 Q1015 NOSIG
Conditions at: LXGB (GIBRALTAR (CIV/M, GI) observed 1050 UTC 20 January 2019
Temperature: 14.0°C (57°F)
Dewpoint: 9.0°C (48°F) [RH = 72%]
Pressure (altimeter): 29.97 inches Hg (1015.0 mb)
Winds: from the W (270 degrees) at 18 MPH (16 knots; 8.2 m/s)
gusting to 30 MPH (26 knots; 13.4 m/s)
Visibility: 6 or more miles (10+ km)
Ceiling: 2500 feet AGL
Clouds: few clouds at 1800 feet AGL
broken clouds at 2500 feet AGL
Weather: no significant weather observed at this time

METAR text: LXGB 200950Z 27015KT 9999 SCT025 BKN038 14/08 Q1014 NOSIG
Conditions at: LXGB (GIBRALTAR (CIV/M, GI) observed 0950 UTC 20 January 2019
Temperature: 14.0°C (57°F)
Dewpoint: 8.0°C (46°F) [RH = 67%]
Pressure (altimeter): 29.94 inches Hg (1014.0 mb)
Winds: from the W (270 degrees) at 17 MPH (15 knots; 7.7 m/s)
Visibility: 6 or more miles (10+ km)
Ceiling: 3800 feet AGL
Clouds: scattered clouds at 2500 feet AGL
broken clouds at 3800 feet AGL
Weather: no significant weather observed at this time

METAR text: LXGB 200850Z 27018G28KT 9999 FEW021 BKN034 14/10 Q1013 BLU TEMPO SCT020 WHT
Conditions at: LXGB (GIBRALTAR (CIV/M, GI) observed 0850 UTC 20 January 2019
Temperature: 14.0°C (57°F)
Dewpoint: 10.0°C (50°F) [RH = 77%]
Pressure (altimeter): 29.91 inches Hg (1013.0 mb)
Winds: from the W (270 degrees) at 21 MPH (18 knots; 9.3 m/s)
gusting to 32 MPH (28 knots; 14.4 m/s)
Visibility: 6 or more miles (10+ km)
Ceiling: 3400 feet AGL
Clouds: few clouds at 2100 feet AGL
broken clouds at 3400 feet AGL
Weather: no significant weather observed at this time

METAR text: LXGB 200750Z 27015KT 9999 FEW020 BKN038 14/11 Q1012 BLU TEMPO SCT020 WHT
Conditions at: LXGB (GIBRALTAR (CIV/M, GI) observed 0750 UTC 20 January 2019
Temperature: 14.0°C (57°F)
Dewpoint: 11.0°C (52°F) [RH = 82%]
Pressure (altimeter): 29.88 inches Hg (1012.0 mb)
Winds: from the W (270 degrees) at 17 MPH (15 knots; 7.7 m/s)
Visibility: 6 or more miles (10+ km)
Ceiling: 3800 feet AGL
Clouds: few clouds at 2000 feet AGL
broken clouds at 3800 feet AGL
Weather: no significant weather observed at this time

METAR text: LXGB 200650Z 26016G26KT 9999 FEW020 SCT035 BKN048 14/12 Q1012
Conditions at: LXGB (GIBRALTAR (CIV/M, GI) observed 0650 UTC 20 January 2019
Temperature: 14.0°C (57°F)
Dewpoint: 12.0°C (54°F) [RH = 88%]
Pressure (altimeter): 29.88 inches Hg (1012.0 mb)
Winds: from the W (260 degrees) at 18 MPH (16 knots; 8.2 m/s)
gusting to 30 MPH (26 knots; 13.4 m/s)
Visibility: 6 or more miles (10+ km)
Ceiling: 4800 feet AGL
Clouds: few clouds at 2000 feet AGL
scattered clouds at 3500 feet AGL
broken clouds at 4800 feet AGL
Weather: no significant weather observed at this time

METAR text: LXGB 200550Z 26014KT 9999 FEW018 SCT050 14/12 Q1012
Conditions at: LXGB (GIBRALTAR (CIV/M, GI) observed 0550 UTC 20 January 2019
Temperature: 14.0°C (57°F)
Dewpoint: 12.0°C (54°F) [RH = 88%]
Pressure (altimeter): 29.88 inches Hg (1012.0 mb)
Winds: from the W (260 degrees) at 16 MPH (14 knots; 7.2 m/s)
Visibility: 6 or more miles (10+ km)
Ceiling: at least 12,000 feet AGL
Clouds: few clouds at 1800 feet AGL
scattered clouds at 5000 feet AGL
Weather: no significant weather observed at this time

METAR text: LXGB 200450Z AUTO 25019KT 9999 // BKN050/// 15/12 Q1012
Conditions at: LXGB (GIBRALTAR (CIV/M, GI) observed 0450 UTC 20 January 2019
Temperature: 15.0°C (59°F)
Dewpoint: 12.0°C (54°F) [RH = 82%]
Pressure (altimeter): 29.88 inches Hg (1012.0 mb)
Winds: from the WSW (250 degrees) at 22 MPH (19 knots; 9.8 m/s)
Visibility: 6 or more miles (10+ km)
Ceiling: 5000 feet AGL
Clouds: broken clouds at 5000 feet AGL
Weather: no significant weather observed at this time

METAR text: LXGB 200350Z AUTO 25015KT 9999 // FEW050/// 15/11 Q1013
Conditions at: LXGB (GIBRALTAR (CIV/M, GI) observed 0350 UTC 20 January 2019
Temperature: 15.0°C (59°F)
Dewpoint: 11.0°C (52°F) [RH = 77%]
Pressure (altimeter): 29.91 inches Hg (1013.0 mb)
Winds: from the WSW (250 degrees) at 17 MPH (15 knots; 7.7 m/s)
Visibility: 6 or more miles (10+ km)
Ceiling: at least 12,000 feet AGL
Clouds: few clouds at 5000 feet AGL
Weather: no significant weather observed at this time

METAR text: LXGB 200250Z AUTO 27020KT 9999 // NCD 15/11 Q1013
Conditions at: LXGB (GIBRALTAR (CIV/M, GI) observed 0250 UTC 20 January 2019
Temperature: 15.0°C (59°F)
Dewpoint: 11.0°C (52°F) [RH = 77%]
Pressure (altimeter): 29.91 inches Hg (1013.0 mb)
Winds: from the W (270 degrees) at 23 MPH (20 knots; 10.3 m/s)
Visibility: 6 or more miles (10+ km)
Ceiling: at least 12,000 feet AGL
Clouds: sky clear below 12,000 feet AGL
Weather: no significant weather observed at this time

METAR text: LXGB 200150Z AUTO 26018KT 9999 // BKN044/// 15/12 Q1013
Conditions at: LXGB (GIBRALTAR (CIV/M, GI) observed 0150 UTC 20 January 2019
Temperature: 15.0°C (59°F)
Dewpoint: 12.0°C (54°F) [RH = 82%]
Pressure (altimeter): 29.91 inches Hg (1013.0 mb)
Winds: from the W (260 degrees) at 21 MPH (18 knots; 9.3 m/s)
Visibility: 6 or more miles (10+ km)
Ceiling: 4400 feet AGL
Clouds: broken clouds at 4400 feet AGL
Weather: no significant weather observed at this time

METAR text: LXGB 200050Z AUTO 25021KT 9999 // FEW026/// BKN050/// 15/12 Q1013
Conditions at: LXGB (GIBRALTAR (CIV/M, GI) observed 0050 UTC 20 January 2019
Temperature: 15.0°C (59°F)
Dewpoint: 12.0°C (54°F) [RH = 82%]
Pressure (altimeter): 29.91 inches Hg (1013.0 mb)
Winds: from the WSW (250 degrees) at 24 MPH (21 knots; 10.8 m/s)
Visibility: 6 or more miles (10+ km)
Ceiling: 5000 feet AGL
Clouds: few clouds at 2600 feet AGL
broken clouds at 5000 feet AGL
Weather: no significant weather observed at this time

METAR text: LXGB 192350Z AUTO 22019G29KT 3600 // FEW021/// SCT030/// BKN044/// 14/13 Q1014
Conditions at: LXGB (GIBRALTAR (CIV/M, GI) observed 2350 UTC 19 January 2019
Temperature: 14.0°C (57°F)
Dewpoint: 13.0°C (55°F) [RH = 94%]
Pressure (altimeter): 29.94 inches Hg (1014.0 mb)
Winds: from the SW (220 degrees) at 22 MPH (19 knots; 9.8 m/s)
gusting to 33 MPH (29 knots; 14.9 m/s)
Visibility: 2.24 miles (3.60 km)
Ceiling: 4400 feet AGL
Clouds: few clouds at 2100 feet AGL
scattered clouds at 3000 feet AGL
broken clouds at 4400 feet AGL
Weather: no significant weather observed at this time

METAR text: LXGB 192250Z AUTO 22016KT 7000 // FEW024/// BKN050/// 15/13 Q1014
Conditions at: LXGB (GIBRALTAR (CIV/M, GI) observed 2250 UTC 19 January 2019
Temperature: 15.0°C (59°F)
Dewpoint: 13.0°C (55°F) [RH = 88%]
Pressure (altimeter): 29.94 inches Hg (1014.0 mb)
Winds: from the SW (220 degrees) at 18 MPH (16 knots; 8.2 m/s)
Visibility: 4 miles ( 7 km)
Ceiling: 5000 feet AGL
Clouds: few clouds at 2400 feet AGL
broken clouds at 5000 feet AGL
Weather: no significant weather observed at this time

METAR text: LXGB 192150Z AUTO 22017KT 9999 // BKN050/// 15/12 Q1015
Conditions at: LXGB (GIBRALTAR (CIV/M, GI) observed 2150 UTC 19 January 2019
Temperature: 15.0°C (59°F)
Dewpoint: 12.0°C (54°F) [RH = 82%]
Pressure (altimeter): 29.97 inches Hg (1015.0 mb)
Winds: from the SW (220 degrees) at 20 MPH (17 knots; 8.7 m/s)
Visibility: 6 or more miles (10+ km)
Ceiling: 5000 feet AGL
Clouds: broken clouds at 5000 feet AGL
Weather: no significant weather observed at this time

METAR text: LXGB 192050Z AUTO 24018KT 9999 // SCT050/// BKN100/// 16/11 Q1016
Conditions at: LXGB (GIBRALTAR (CIV/M, GI) observed 2050 UTC 19 January 2019
Temperature: 16.0°C (61°F)
Dewpoint: 11.0°C (52°F) [RH = 72%]
Pressure (altimeter): 30.00 inches Hg (1016.0 mb)
Winds: from the WSW (240 degrees) at 21 MPH (18 knots; 9.3 m/s)
Visibility: 6 or more miles (10+ km)
Ceiling: 10000 feet AGL
Clouds: scattered clouds at 5000 feet AGL
broken clouds at 10000 feet AGL
Weather: no significant weather observed at this time

METAR text: LXGB 191950Z AUTO 23010KT 9999 // FEW025/// BKN029/// BKN060/// 15/12 Q1016
Conditions at: LXGB (GIBRALTAR (CIV/M, GI) observed 1950 UTC 19 January 2019
Temperature: 15.0°C (59°F)
Dewpoint: 12.0°C (54°F) [RH = 82%]
Pressure (altimeter): 30.00 inches Hg (1016.0 mb)
Winds: from the SW (230 degrees) at 12 MPH (10 knots; 5.1 m/s)
Visibility: 6 or more miles (10+ km)
Ceiling: 2900 feet AGL
Clouds: few clouds at 2500 feet AGL
broken clouds at 2900 feet AGL
broken clouds at 6000 feet AGL
Weather: no significant weather observed at this time

METAR text: LXGB 191850Z AUTO 27005KT 9999 // BKN026/// 14/12 Q1017
Conditions at: LXGB (GIBRALTAR (CIV/M, GI) observed 1850 UTC 19 January 2019
Temperature: 14.0°C (57°F)
Dewpoint: 12.0°C (54°F) [RH = 88%]
Pressure (altimeter): 30.03 inches Hg (1017.0 mb)
Winds: from the W (270 degrees) at 6 MPH (5 knots; 2.6 m/s)
Visibility: 6 or more miles (10+ km)
Ceiling: 2600 feet AGL
Clouds: broken clouds at 2600 feet AGL
Weather: no significant weather observed at this time

METAR text: LXGB 191750Z AUTO 24007KT 9999 // FEW022/// SCT027/// BKN046/// 13/12 Q1017
Conditions at: LXGB (GIBRALTAR (CIV/M, GI) observed 1750 UTC 19 January 2019
Temperature: 13.0°C (55°F)
Dewpoint: 12.0°C (54°F) [RH = 94%]
Pressure (altimeter): 30.03 inches Hg (1017.0 mb)
Winds: from the WSW (240 degrees) at 8 MPH (7 knots; 3.6 m/s)
Visibility: 6 or more miles (10+ km)
Ceiling: 4600 feet AGL
Clouds: few clouds at 2200 feet AGL
scattered clouds at 2700 feet AGL
broken clouds at 4600 feet AGL
Weather: no significant weather observed at this time

METAR text: LXGB 191650Z AUTO 28012KT 9999 // SCT023/// BKN038/// 14/11 Q1018
Conditions at: LXGB (GIBRALTAR (CIV/M, GI) observed 1650 UTC 19 January 2019
Temperature: 14.0°C (57°F)
Dewpoint: 11.0°C (52°F) [RH = 82%]
Pressure (altimeter): 30.06 inches Hg (1018.0 mb)
Winds: from the W (280 degrees) at 14 MPH (12 knots; 6.2 m/s)
Visibility: 6 or more miles (10+ km)
Ceiling: 3800 feet AGL
Clouds: scattered clouds at 2300 feet AGL
broken clouds at 3800 feet AGL
Weather: no significant weather observed at this time

METAR text: LXGB 191629Z 28011KT 9999 FEW022 SCT030 BKN080 14/10 Q1017 BLU TEMPO -SHRA SCT022 WHT
Conditions at: LXGB (GIBRALTAR (CIV/M, GI) observed 1629 UTC 19 January 2019
Temperature: 14.0°C (57°F)
Dewpoint: 10.0°C (50°F) [RH = 77%]
Pressure (altimeter): 30.03 inches Hg (1017.0 mb)
Winds: from the W (280 degrees) at 13 MPH (11 knots; 5.7 m/s)
Visibility: 6 or more miles (10+ km)
Ceiling: 8000 feet AGL
Clouds: few clouds at 2200 feet AGL
scattered clouds at 3000 feet AGL
broken clouds at 8000 feet AGL
Weather: no significant weather observed at this time

METAR text: LXGB 191550Z 27013KT 9999 VCSH SCT018 BKN070 BKN120 14/10 Q1018 RERA TEMPO 6000 RA
Conditions at: LXGB (GIBRALTAR (CIV/M, GI) observed 1550 UTC 19 January 2019
Temperature: 14.0°C (57°F)
Dewpoint: 10.0°C (50°F) [RH = 77%]
Pressure (altimeter): 30.06 inches Hg (1018.0 mb)
Winds: from the W (270 degrees) at 15 MPH (13 knots; 6.7 m/s)
Visibility: 6 or more miles (10+ km)
Ceiling: 7000 feet AGL
Clouds: scattered clouds at 1800 feet AGL
broken clouds at 7000 feet AGL
broken clouds at 12000 feet AGL
Weather: VCSH  (showers in vicinity)

METAR text: LXGB 191450Z 28014KT 9999 VCSH SCT020 BKN027 BKN140 15/10 Q1018 WHT TEMPO 6000 RA WHT
Conditions at: LXGB (GIBRALTAR (CIV/M, GI) observed 1450 UTC 19 January 2019
Temperature: 15.0°C (59°F)
Dewpoint: 10.0°C (50°F) [RH = 72%]
Pressure (altimeter): 30.06 inches Hg (1018.0 mb)
Winds: from the W (280 degrees) at 16 MPH (14 knots; 7.2 m/s)
Visibility: 6 or more miles (10+ km)
Ceiling: 2700 feet AGL
Clouds: scattered clouds at 2000 feet AGL
broken clouds at 2700 feet AGL
broken clouds at 14000 feet AGL
Weather: VCSH  (showers in vicinity)

METAR text: LXGB 191350Z 26013KT 9999 SCT020 BKN140 15/11 Q1018 WHT TEMPO 7000 RA WHT
Conditions at: LXGB (GIBRALTAR (CIV/M, GI) observed 1350 UTC 19 January 2019
Temperature: 15.0°C (59°F)
Dewpoint: 11.0°C (52°F) [RH = 77%]
Pressure (altimeter): 30.06 inches Hg (1018.0 mb)
Winds: from the W (260 degrees) at 15 MPH (13 knots; 6.7 m/s)
Visibility: 6 or more miles (10+ km)
Ceiling: 14000 feet AGL
Clouds: scattered clouds at 2000 feet AGL
broken clouds at 14000 feet AGL
Weather: no significant weather observed at this time

METAR text: LXGB 191250Z 27014KT 9999 SCT023 BKN040 BKN140 14/10 Q1019 TEMPO 7000 RA
Conditions at: LXGB (GIBRALTAR (CIV/M, GI) observed 1250 UTC 19 January 2019
Temperature: 14.0°C (57°F)
Dewpoint: 10.0°C (50°F) [RH = 77%]
Pressure (altimeter): 30.09 inches Hg (1019.0 mb)
Winds: from the W (270 degrees) at 16 MPH (14 knots; 7.2 m/s)
Visibility: 6 or more miles (10+ km)
Ceiling: 4000 feet AGL
Clouds: scattered clouds at 2300 feet AGL
broken clouds at 4000 feet AGL
broken clouds at 14000 feet AGL
Weather: no significant weather observed at this time

METAR text: LXGB 191150Z 28012KT 9999 SCT022 BKN038 14/10 Q1019 WHT TEMPO FEW022 BLU
Conditions at: LXGB (GIBRALTAR (CIV/M, GI) observed 1150 UTC 19 January 2019
Temperature: 14.0°C (57°F)
Dewpoint: 10.0°C (50°F) [RH = 77%]
Pressure (altimeter): 30.09 inches Hg (1019.0 mb)
Winds: from the W (280 degrees) at 14 MPH (12 knots; 6.2 m/s)
Visibility: 6 or more miles (10+ km)
Ceiling: 3800 feet AGL
Clouds: scattered clouds at 2200 feet AGL
broken clouds at 3800 feet AGL
Weather: no significant weather observed at this time

Forecast for: LXGB (GIBRALTAR (CIV/M, GI)
Text: TAF LXGB 201657Z 2018/2023 28010KT 9999 FEW035
Forecast period: 1800 to 2300 UTC 20 January 2019
Forecast type: FROM: standard forecast or significant change
Winds: from the W (280 degrees) at 12 MPH (10 knots; 5.1 m/s)
Visibility: 6 or more miles 10+ km)
Ceiling: at least 12,000 feet AGL
Clouds: few clouds at 3500 feet AGL
Weather: no significant weather forecast for this period